Time;durP1;ratioP1;P1;durP2;ratioP2;P2;SDS_P1;SDS_P2;PMS_P1;PMS_P2;Temp;Humidity;BMP_temperature;BMP_pressure;BME280_temperature;BME280_humidity;BME280_pressure;Samples;Min_cycle;Max_cycle;Signal;HPM_P1;HPM_P2
2023/07/22 00:01:09;;;;;;;4.20;3.38;;;;;;;;;;4954895;28;20027;-72
2023/07/22 00:03:35;;;;;;;6.78;3.55;;;;;;;;;;4954845;28;20019;-72
2023/07/22 00:06:08;;;;;;;5.28;3.63;;;;;;;;;;4954880;29;20111;-71
2023/07/22 00:08:35;;;;;;;6.65;3.50;;;;;;;;;;4954662;29;20038;-71
2023/07/22 00:11:01;;;;;;;5.70;3.45;;;;;;;;;;4954761;28;20102;-70
2023/07/22 00:13:27;;;;;;;7.10;3.83;;;;;;;;;;4954703;29;20474;-72
2023/07/22 00:15:56;;;;;;;6.57;3.63;;;;;;;;;;4954592;29;20046;-70
2023/07/22 00:18:23;;;;;;;4.28;3.60;;;;;;;;;;4953039;28;20138;-71
2023/07/22 00:20:49;;;;;;;5.13;3.65;;;;;;;;;;4954690;28;20027;-71
2023/07/22 00:23:16;;;;;;;3.83;3.40;;;;;;;;;;4954520;28;20060;-72
2023/07/22 00:25:42;;;;;;;4.97;3.53;;;;;;;;;;4954492;29;20038;-73
2023/07/22 00:28:08;;;;;;;5.63;3.40;;;;;;;;;;4954005;29;20083;-71
2023/07/22 00:30:37;;;;;;;4.22;3.40;;;;;;;;;;4954326;29;20465;-71
2023/07/22 00:33:03;;;;;;;9.18;3.72;;;;;;;;;;4954256;28;20141;-71
2023/07/22 00:35:29;;;;;;;5.10;3.28;;;;;;;;;;4954278;29;20023;-71
2023/07/22 00:37:55;;;;;;;5.68;3.30;;;;;;;;;;4952956;28;20398;-71
2023/07/22 00:40:22;;;;;;;6.05;3.78;;;;;;;;;;4954406;28;20023;-72
2023/07/22 00:42:48;;;;;;;7.55;3.53;;;;;;;;;;4954072;28;20406;-72
2023/07/22 00:45:14;;;;;;;5.55;3.65;;;;;;;;;;4954056;28;20034;-71
2023/07/22 00:47:41;;;;;;;5.28;3.92;;;;;;;;;;4954011;28;20110;-71
2023/07/22 00:50:08;;;;;;;4.55;3.92;;;;;;;;;;4954867;28;20106;-73
2023/07/22 00:52:37;;;;;;;5.25;3.60;;;;;;;;;;4954302;28;20082;-71
2023/07/22 00:55:03;;;;;;;5.88;4.05;;;;;;;;;;4953784;28;20027;-73
2023/07/22 00:57:29;;;;;;;5.50;3.78;;;;;;;;;;4954030;29;20035;-72
2023/07/22 00:59:55;;;;;;;8.00;3.78;;;;;;;;;;4954255;29;20055;-71
2023/07/22 01:02:23;;;;;;;7.78;3.75;;;;;;;;;;4953835;29;20031;-71
2023/07/22 01:04:49;;;;;;;6.50;3.58;;;;;;;;;;4953848;28;20023;-71
2023/07/22 01:07:16;;;;;;;5.40;3.58;;;;;;;;;;4953543;28;20023;-71
2023/07/22 01:09:42;;;;;;;11.82;4.35;;;;;;;;;;4952554;29;20037;-71
2023/07/22 01:12:09;;;;;;;6.03;3.53;;;;;;;;;;4953695;28;20098;-72
2023/07/22 01:14:36;;;;;;;6.18;4.38;;;;;;;;;;4954024;29;20054;-72
2023/07/22 01:17:02;;;;;;;5.75;3.75;;;;;;;;;;4952146;29;20019;-73
2023/07/22 01:19:30;;;;;;;8.50;3.97;;;;;;;;;;4954334;29;20620;-72
2023/07/22 01:21:57;;;;;;;7.65;4.18;;;;;;;;;;4953748;28;20495;-72
2023/07/22 01:24:23;;;;;;;6.43;3.88;;;;;;;;;;4953594;29;20065;-73
2023/07/22 01:26:49;;;;;;;3.95;3.58;;;;;;;;;;4953434;29;20031;-72
2023/07/22 01:29:15;;;;;;;5.28;4.03;;;;;;;;;;4953573;29;20031;-73
2023/07/22 01:31:41;;;;;;;7.88;3.75;;;;;;;;;;4953821;28;20062;-72
2023/07/22 01:34:07;;;;;;;6.13;3.78;;;;;;;;;;4953384;29;20055;-72
2023/07/22 01:36:33;;;;;;;4.97;4.53;;;;;;;;;;4953118;29;20038;-71
2023/07/22 01:39:00;;;;;;;7.10;3.95;;;;;;;;;;4953189;29;20075;-71
2023/07/22 01:41:26;;;;;;;8.15;4.13;;;;;;;;;;4953252;28;20089;-71
2023/07/22 01:43:52;;;;;;;6.32;4.65;;;;;;;;;;4953337;29;20112;-72
2023/07/22 01:46:18;;;;;;;7.25;4.07;;;;;;;;;;4953510;29;20099;-72
2023/07/22 01:48:44;;;;;;;9.05;5.07;;;;;;;;;;4953241;29;20403;-72
2023/07/22 01:51:11;;;;;;;9.32;4.32;;;;;;;;;;4953329;29;20037;-72
2023/07/22 01:53:37;;;;;;;7.47;5.05;;;;;;;;;;4953192;28;20027;-73
2023/07/22 01:56:04;;;;;;;8.75;4.88;;;;;;;;;;4953281;29;20035;-72
2023/07/22 01:58:30;;;;;;;5.55;4.38;;;;;;;;;;4953248;28;20157;-71
2023/07/22 02:00:56;;;;;;;6.88;4.78;;;;;;;;;;4952088;29;20049;-71
2023/07/22 02:03:22;;;;;;;6.30;4.63;;;;;;;;;;4953083;29;20167;-72
2023/07/22 02:05:48;;;;;;;9.82;5.03;;;;;;;;;;4954324;28;20031;-72
2023/07/22 02:08:14;;;;;;;12.73;5.90;;;;;;;;;;4956746;29;20070;-71
2023/07/22 02:10:40;;;;;;;6.10;4.82;;;;;;;;;;4957033;29;20032;-72
2023/07/22 02:13:07;;;;;;;9.32;5.32;;;;;;;;;;4956847;29;20476;-72
2023/07/22 02:15:34;;;;;;;12.18;5.45;;;;;;;;;;4957078;28;20027;-71
2023/07/22 02:18:00;;;;;;;12.60;4.95;;;;;;;;;;4956701;28;20034;-72
2023/07/22 02:20:28;;;;;;;12.13;5.22;;;;;;;;;;4956964;29;20073;-72
2023/07/22 02:22:54;;;;;;;11.13;5.25;;;;;;;;;;4955197;28;20403;-71
2023/07/22 02:25:20;;;;;;;12.13;5.40;;;;;;;;;;4956685;29;20056;-72
2023/07/22 02:27:46;;;;;;;10.32;5.18;;;;;;;;;;4955226;29;20027;-72
2023/07/22 02:30:12;;;;;;;10.65;5.80;;;;;;;;;;4956564;28;20665;-72
2023/07/22 02:32:39;;;;;;;8.95;4.65;;;;;;;;;;4956521;29;20068;-72
2023/07/22 02:35:06;;;;;;;14.88;5.80;;;;;;;;;;4956670;29;20023;-71
2023/07/22 02:37:32;;;;;;;10.20;5.38;;;;;;;;;;4956292;28;20395;-72
2023/07/22 02:39:58;;;;;;;12.77;5.40;;;;;;;;;;4956675;28;20023;-72
2023/07/22 02:42:24;;;;;;;12.57;5.05;;;;;;;;;;4956529;29;20103;-75
2023/07/22 02:44:50;;;;;;;9.15;5.25;;;;;;;;;;4956403;28;20102;-73
2023/07/22 02:47:16;;;;;;;10.60;5.68;;;;;;;;;;4956378;28;20405;-72
2023/07/22 02:49:42;;;;;;;9.05;5.07;;;;;;;;;;4955678;29;20031;-72
2023/07/22 02:52:08;;;;;;;8.68;4.95;;;;;;;;;;4956159;28;20411;-72
2023/07/22 02:54:41;;;;;;;9.82;5.60;;;;;;;;;;4956385;29;20035;-72
2023/07/22 02:57:07;;;;;;;10.60;5.88;;;;;;;;;;4956374;28;20035;-72
2023/07/22 02:59:33;;;;;;;16.45;6.32;;;;;;;;;;4954944;29;20101;-73
2023/07/22 03:01:59;;;;;;;15.30;8.60;;;;;;;;;;4956148;29;20587;-73
2023/07/22 03:04:25;;;;;;;13.25;7.43;;;;;;;;;;4956074;29;20487;-72
2023/07/22 03:06:52;;;;;;;17.25;8.02;;;;;;;;;;4955868;28;20479;-72
2023/07/22 03:09:18;;;;;;;15.63;7.38;;;;;;;;;;4956030;28;20479;-72
2023/07/22 03:11:44;;;;;;;11.65;6.20;;;;;;;;;;4955864;29;20150;-72
2023/07/22 03:14:10;;;;;;;12.23;7.20;;;;;;;;;;4955786;29;20031;-70
2023/07/22 03:16:36;;;;;;;10.27;5.57;;;;;;;;;;4955435;29;20027;-70
2023/07/22 03:19:02;;;;;;;8.80;5.50;;;;;;;;;;4954970;28;20027;-71
2023/07/22 03:21:29;;;;;;;13.35;6.20;;;;;;;;;;4955688;28;20114;-71
2023/07/22 03:23:55;;;;;;;20.35;6.35;;;;;;;;;;4955501;28;20090;-71
2023/07/22 03:26:21;;;;;;;13.35;9.90;;;;;;;;;;4955466;29;20035;-70
2023/07/22 03:28:47;;;;;;;14.70;8.18;;;;;;;;;;4955375;28;20062;-71
2023/07/22 03:31:13;;;;;;;8.00;5.70;;;;;;;;;;4955467;28;20414;-71
2023/07/22 03:33:39;;;;;;;9.07;5.53;;;;;;;;;;4953950;29;20122;-71
2023/07/22 03:36:06;;;;;;;12.48;5.78;;;;;;;;;;4955723;29;20529;-70
2023/07/22 03:38:32;;;;;;;9.70;5.53;;;;;;;;;;4955467;28;20061;-71
2023/07/22 03:40:58;;;;;;;8.93;6.22;;;;;;;;;;4955398;28;20470;-71
2023/07/22 03:43:24;;;;;;;10.10;5.47;;;;;;;;;;4955258;28;20031;-71
2023/07/22 03:45:50;;;;;;;8.40;4.82;;;;;;;;;;4955105;29;20447;-72
2023/07/22 03:48:16;;;;;;;8.07;5.18;;;;;;;;;;4953746;28;20128;-71
2023/07/22 03:50:42;;;;;;;10.60;4.50;;;;;;;;;;4955229;28;20027;-71
2023/07/22 03:53:08;;;;;;;12.77;4.82;;;;;;;;;;4955042;28;20031;-71
2023/07/22 03:55:34;;;;;;;10.25;4.28;;;;;;;;;;4955079;29;20061;-71
2023/07/22 03:58:00;;;;;;;7.45;3.85;;;;;;;;;;4954985;28;20019;-71
2023/07/22 04:00:26;;;;;;;9.10;4.15;;;;;;;;;;4955018;29;20028;-71
2023/07/22 04:02:52;;;;;;;15.80;5.25;;;;;;;;;;4955847;29;20023;-71
2023/07/22 04:05:18;;;;;;;11.70;4.45;;;;;;;;;;4957080;28;20034;-71
2023/07/22 04:07:45;;;;;;;11.38;4.25;;;;;;;;;;4957293;29;20542;-71
2023/07/22 04:10:11;;;;;;;11.77;3.80;;;;;;;;;;4959265;29;20027;-73
2023/07/22 04:12:37;;;;;;;8.38;3.50;;;;;;;;;;4957552;29;20579;-71
2023/07/22 04:15:03;;;;;;;5.25;3.58;;;;;;;;;;4956039;29;20106;-72
2023/07/22 04:17:29;;;;;;;6.68;3.60;;;;;;;;;;4953209;28;20054;-71
2023/07/22 04:19:55;;;;;;;7.28;3.70;;;;;;;;;;4954786;29;20027;-71
2023/07/22 04:22:21;;;;;;;9.35;3.75;;;;;;;;;;4954481;29;20051;-71
2023/07/22 04:24:50;;;;;;;7.22;2.97;;;;;;;;;;4954609;29;20038;-72
2023/07/22 04:27:17;;;;;;;5.25;3.42;;;;;;;;;;4954550;29;20024;-71
2023/07/22 04:29:43;;;;;;;6.53;3.20;;;;;;;;;;4951050;28;20097;-71
2023/07/22 04:32:09;;;;;;;10.07;3.30;;;;;;;;;;4953053;29;20023;-72
2023/07/22 04:34:35;;;;;;;4.72;2.88;;;;;;;;;;4954361;28;20027;-72
2023/07/22 04:37:01;;;;;;;6.65;2.80;;;;;;;;;;4954274;28;20039;-72
2023/07/22 04:39:27;;;;;;;7.05;2.90;;;;;;;;;;4954451;28;20435;-71
2023/07/22 04:41:54;;;;;;;5.18;2.80;;;;;;;;;;4954146;28;20422;-71
2023/07/22 04:44:20;;;;;;;7.45;3.22;;;;;;;;;;4954222;28;20026;-71
2023/07/22 04:46:46;;;;;;;6.03;2.83;;;;;;;;;;4954030;28;20458;-72
2023/07/22 04:49:13;;;;;;;4.97;2.67;;;;;;;;;;4954114;28;20050;-73
2023/07/22 04:51:39;;;;;;;10.27;3.15;;;;;;;;;;4952881;28;20038;-71
2023/07/22 04:54:06;;;;;;;5.05;2.35;;;;;;;;;;4954105;28;20465;-71
2023/07/22 04:56:32;;;;;;;4.57;2.88;;;;;;;;;;4952632;28;20093;-71
2023/07/22 04:58:57;;;;;;;6.18;2.63;;;;;;;;;;4954045;28;20055;-71
2023/07/22 05:01:23;;;;;;;8.20;2.65;;;;;;;;;;4954750;28;20495;-71
2023/07/22 05:03:49;;;;;;;5.55;2.70;;;;;;;;;;4953944;29;20023;-71
2023/07/22 05:06:15;;;;;;;4.45;3.10;;;;;;;;;;4953797;29;20061;-71
2023/07/22 05:08:42;;;;;;;3.33;2.55;;;;;;;;;;4953773;28;20110;-72
2023/07/22 05:11:08;;;;;;;7.88;2.92;;;;;;;;;;4953718;28;20531;-71
2023/07/22 05:13:34;;;;;;;4.85;2.70;;;;;;;;;;4953471;29;20086;-71
2023/07/22 05:16:00;;;;;;;5.47;3.00;;;;;;;;;;4953696;29;20063;-71
2023/07/22 05:18:26;;;;;;;6.22;3.13;;;;;;;;;;4953249;29;20055;-71
2023/07/22 05:20:52;;;;;;;7.90;3.03;;;;;;;;;;4953615;29;20033;-71
2023/07/22 05:23:18;;;;;;;6.53;2.95;;;;;;;;;;4953872;29;20031;-71
2023/07/22 05:25:44;;;;;;;5.38;2.65;;;;;;;;;;4953355;29;20054;-71
2023/07/22 05:28:10;;;;;;;9.25;2.67;;;;;;;;;;4953319;28;20031;-72
2023/07/22 05:30:37;;;;;;;7.68;3.40;;;;;;;;;;4953121;28;20035;-71
2023/07/22 05:33:03;;;;;;;4.15;2.97;;;;;;;;;;4953254;29;20026;-71
2023/07/22 05:35:29;;;;;;;7.25;2.95;;;;;;;;;;4953255;29;20023;-71
2023/07/22 05:37:55;;;;;;;5.65;2.90;;;;;;;;;;4951522;28;20028;-71
2023/07/22 05:40:21;;;;;;;8.77;3.00;;;;;;;;;;4951846;28;20027;-71
2023/07/22 05:42:47;;;;;;;9.75;3.30;;;;;;;;;;4953080;28;20571;-71
2023/07/22 05:45:15;;;;;;;7.40;2.80;;;;;;;;;;4953326;29;20027;-71
2023/07/22 05:47:41;;;;;;;5.15;2.33;;;;;;;;;;4953355;28;20107;-71
2023/07/22 05:50:07;;;;;;;6.53;2.97;;;;;;;;;;4953064;29;20055;-71
2023/07/22 05:52:33;;;;;;;4.10;2.45;;;;;;;;;;4951635;29;20534;-71
2023/07/22 05:54:59;;;;;;;6.65;2.33;;;;;;;;;;4953171;28;20015;-71
2023/07/22 05:57:25;;;;;;;7.40;3.47;;;;;;;;;;4952724;29;20450;-69
2023/07/22 05:59:51;;;;;;;4.57;3.22;;;;;;;;;;4953099;28;20023;-71
2023/07/22 06:02:18;;;;;;;5.18;2.78;;;;;;;;;;4953098;29;20024;-71
2023/07/22 06:04:44;;;;;;;8.15;2.97;;;;;;;;;;4953013;29;20479;-71
2023/07/22 06:07:10;;;;;;;3.67;3.15;;;;;;;;;;4952896;29;20042;-72
2023/07/22 06:09:36;;;;;;;7.75;3.00;;;;;;;;;;4953167;29;20410;-72
2023/07/22 06:12:02;;;;;;;4.60;3.28;;;;;;;;;;4951584;29;20086;-72
2023/07/22 06:14:28;;;;;;;6.97;3.75;;;;;;;;;;4952898;29;20475;-72
2023/07/22 06:16:54;;;;;;;5.22;3.40;;;;;;;;;;4951532;29;20126;-72
2023/07/22 06:19:20;;;;;;;6.68;3.10;;;;;;;;;;4953042;29;20114;-72
2023/07/22 06:21:46;;;;;;;4.07;3.25;;;;;;;;;;4952682;29;20019;-71
2023/07/22 06:24:12;;;;;;;5.15;3.13;;;;;;;;;;4951560;29;20574;-72
2023/07/22 06:26:38;;;;;;;5.50;3.63;;;;;;;;;;4952415;29;20122;-73
2023/07/22 06:29:04;;;;;;;9.75;3.40;;;;;;;;;;4951520;28;20023;-73
2023/07/22 06:31:30;;;;;;;5.82;3.60;;;;;;;;;;4952750;29;20031;-73
2023/07/22 06:34:00;;;;;;;4.95;3.17;;;;;;;;;;4952810;28;20031;-71
2023/07/22 06:36:26;;;;;;;8.55;4.13;;;;;;;;;;4952738;29;20015;-72
2023/07/22 06:38:52;;;;;;;5.97;3.47;;;;;;;;;;4952740;29;20066;-72
2023/07/22 06:41:19;;;;;;;9.63;4.30;;;;;;;;;;4952672;28;20414;-71
2023/07/22 06:43:45;;;;;;;8.05;4.00;;;;;;;;;;4952734;28;20111;-72
2023/07/22 06:46:11;;;;;;;6.82;3.80;;;;;;;;;;4952801;28;20476;-73
2023/07/22 06:48:37;;;;;;;14.95;3.80;;;;;;;;;;4949966;28;20032;-72
2023/07/22 06:51:03;;;;;;;5.47;3.30;;;;;;;;;;4952577;29;20094;-73
2023/07/22 06:53:29;;;;;;;5.30;3.08;;;;;;;;;;4954483;28;20023;-73
2023/07/22 06:55:55;;;;;;;8.32;3.42;;;;;;;;;;4956265;29;20028;-72
2023/07/22 06:58:24;;;;;;;6.88;3.53;;;;;;;;;;4956237;28;20097;-73
2023/07/22 07:00:54;;;;;;;8.75;3.40;;;;;;;;;;4954401;28;20031;-71
2023/07/22 07:03:21;;;;;;;6.07;3.50;;;;;;;;;;4955709;28;20471;-73
2023/07/22 07:05:52;;;;;;;4.90;3.50;;;;;;;;;;4956014;28;20027;-73
2023/07/22 07:08:19;;;;;;;;;;;;;;;;;;4956215;29;20038;-72
2023/07/22 07:10:45;;;;;;;6.75;3.05;;;;;;;;;;4955873;28;20019;-73
2023/07/22 07:13:11;;;;;;;5.63;3.50;;;;;;;;;;4955644;28;20468;-73
2023/07/22 07:15:37;;;;;;;5.55;3.58;;;;;;;;;;4955673;28;20035;-73
2023/07/22 07:18:03;;;;;;;7.07;3.35;;;;;;;;;;4955489;29;20031;-73
2023/07/22 07:20:29;;;;;;;5.75;3.33;;;;;;;;;;4955513;28;20372;-73
2023/07/22 07:22:55;;;;;;;4.45;3.45;;;;;;;;;;4955532;29;20034;-73
2023/07/22 07:25:21;;;;;;;6.68;3.40;;;;;;;;;;4955711;28;20030;-73
2023/07/22 07:27:47;;;;;;;4.63;3.55;;;;;;;;;;4955722;28;20032;-73
2023/07/22 07:30:13;;;;;;;6.50;3.38;;;;;;;;;;4955447;28;20053;-73
2023/07/22 07:32:40;;;;;;;5.60;3.30;;;;;;;;;;4955390;28;20062;-73
2023/07/22 07:35:06;;;;;;;5.50;3.58;;;;;;;;;;4955337;28;20031;-72
2023/07/22 07:37:32;;;;;;;6.22;3.13;;;;;;;;;;4955021;28;20435;-73
2023/07/22 07:39:59;;;;;;;3.78;3.15;;;;;;;;;;4955378;28;20082;-73
2023/07/22 07:42:27;;;;;;;5.05;2.80;;;;;;;;;;4953821;29;20042;-73
2023/07/22 07:44:53;;;;;;;4.35;3.28;;;;;;;;;;4954947;28;20055;-73
2023/07/22 07:47:19;;;;;;;5.05;3.40;;;;;;;;;;4954777;29;20027;-72
2023/07/22 07:49:46;;;;;;;9.55;3.58;;;;;;;;;;4955004;28;20075;-73
2023/07/22 07:52:12;;;;;;;6.30;3.60;;;;;;;;;;4954833;28;20082;-73
2023/07/22 07:54:38;;;;;;;4.35;3.63;;;;;;;;;;4955118;28;20103;-73
2023/07/22 07:57:04;;;;;;;4.15;3.70;;;;;;;;;;4954729;29;20105;-73
2023/07/22 07:59:30;;;;;;;4.53;3.10;;;;;;;;;;4954806;29;20026;-73
2023/07/22 08:01:56;;;;;;;5.60;3.50;;;;;;;;;;4953240;29;20035;-73
2023/07/22 08:04:23;;;;;;;5.13;3.15;;;;;;;;;;4954479;28;20030;-73
2023/07/22 08:06:49;;;;;;;5.90;3.15;;;;;;;;;;4954527;28;20023;-73
2023/07/22 08:09:18;;;;;;;7.15;3.42;;;;;;;;;;4954899;28;20101;-73
2023/07/22 08:11:45;;;;;;;6.05;3.28;;;;;;;;;;4954546;28;20059;-73
2023/07/22 08:14:11;;;;;;;6.93;4.22;;;;;;;;;;4953374;29;20050;-73
2023/07/22 08:16:37;;;;;;;10.02;4.07;;;;;;;;;;4954556;28;20420;-73
2023/07/22 08:19:04;;;;;;;5.30;3.58;;;;;;;;;;4953001;28;20038;-73
2023/07/22 08:21:30;;;;;;;4.18;3.60;;;;;;;;;;4952934;29;20027;-73
2023/07/22 08:23:56;;;;;;;6.35;3.55;;;;;;;;;;4953029;28;20121;-73
2023/07/22 08:26:23;;;;;;;5.03;3.45;;;;;;;;;;4953166;28;20032;-73
2023/07/22 08:28:49;;;;;;;5.70;3.70;;;;;;;;;;4954038;29;20058;-74
2023/07/22 08:31:15;;;;;;;4.53;3.05;;;;;;;;;;4954226;29;20027;-73
2023/07/22 08:33:41;;;;;;;4.38;3.08;;;;;;;;;;4954110;29;20028;-73
2023/07/22 08:36:07;;;;;;;7.47;3.50;;;;;;;;;;4954014;29;20446;-73
2023/07/22 08:38:33;;;;;;;6.20;2.97;;;;;;;;;;4953993;28;20154;-73
2023/07/22 08:40:59;;;;;;;3.45;3.15;;;;;;;;;;4952337;29;20473;-73
2023/07/22 08:43:25;;;;;;;4.13;3.17;;;;;;;;;;4952630;29;20027;-73
2023/07/22 08:45:52;;;;;;;6.53;3.28;;;;;;;;;;4954225;28;20558;-73
2023/07/22 08:48:19;;;;;;;5.07;3.38;;;;;;;;;;4953732;29;20031;-73
2023/07/22 08:50:45;;;;;;;6.25;3.47;;;;;;;;;;4953807;29;20376;-73
2023/07/22 08:53:12;;;;;;;3.85;3.15;;;;;;;;;;4954029;28;20055;-73
2023/07/22 08:55:41;;;;;;;4.72;2.85;;;;;;;;;;4953772;29;20063;-73
2023/07/22 08:58:11;;;;;;;6.00;3.10;;;;;;;;;;4952281;29;20037;-73
2023/07/22 09:00:37;;;;;;;5.28;3.30;;;;;;;;;;4953647;29;20094;-73
2023/07/22 09:03:04;;;;;;;4.07;2.60;;;;;;;;;;4953437;28;20061;-73
2023/07/22 09:05:31;;;;;;;4.05;3.10;;;;;;;;;;4953681;28;20023;-73
2023/07/22 09:07:58;;;;;;;4.45;3.15;;;;;;;;;;4953414;28;20031;-73
2023/07/22 09:10:27;;;;;;;4.75;2.95;;;;;;;;;;4953334;28;20023;-72
2023/07/22 09:12:53;;;;;;;5.03;2.80;;;;;;;;;;4953014;28;20038;-74
2023/07/22 09:15:20;;;;;;;5.25;2.83;;;;;;;;;;4952864;28;20019;-73
2023/07/22 09:17:46;;;;;;;4.07;2.60;;;;;;;;;;4953364;28;20058;-73
2023/07/22 09:20:16;;;;;;;5.55;2.47;;;;;;;;;;4953384;29;20089;-73
2023/07/22 09:22:50;;;;;;;2.55;2.35;;;;;;;;;;4953316;28;20156;-73
2023/07/22 09:25:23;;;;;;;4.75;2.72;;;;;;;;;;4952993;28;20086;-73
2023/07/22 09:27:50;;;;;;;3.22;2.50;;;;;;;;;;4951788;28;20023;-73
2023/07/22 09:30:31;;;;;;;3.45;2.75;;;;;;;;;;4953353;29;20391;-73
2023/07/22 09:32:58;;;;;;;7.10;3.05;;;;;;;;;;4952994;29;20027;-73
2023/07/22 09:35:29;;;;;;;5.85;2.50;;;;;;;;;;4953151;28;20030;-73
2023/07/22 09:37:56;;;;;;;5.72;3.00;;;;;;;;;;4953027;29;20521;-73
2023/07/22 09:40:22;;;;;;;4.43;2.30;;;;;;;;;;4952941;28;20094;-72
2023/07/22 09:42:52;;;;;;;2.97;2.55;;;;;;;;;;4951682;29;20037;-73
2023/07/22 09:45:19;;;;;;;3.45;2.88;;;;;;;;;;4953030;28;20035;-73
2023/07/22 09:47:46;;;;;;;2.50;2.30;;;;;;;;;;4952826;29;20098;-73
2023/07/22 09:50:14;;;;;;;2.42;2.22;;;;;;;;;;4952758;28;20152;-73
2023/07/22 09:52:59;;;;;;;7.03;2.78;;;;;;;;;;4952810;28;20037;-73
2023/07/22 09:55:28;;;;;;;4.38;2.80;;;;;;;;;;4953107;29;20027;-73
2023/07/22 09:57:55;;;;;;;3.58;2.67;;;;;;;;;;4952850;28;20043;-73
2023/07/22 10:00:21;;;;;;;4.03;2.15;;;;;;;;;;4953026;29;20091;-73
2023/07/22 10:02:51;;;;;;;2.60;2.30;;;;;;;;;;4952869;29;20032;-73
2023/07/22 10:05:18;;;;;;;5.15;2.15;;;;;;;;;;4951610;29;20023;-72
2023/07/22 10:07:52;;;;;;;3.83;2.58;;;;;;;;;;4952612;29;20027;-73
2023/07/22 10:10:19;;;;;;;3.97;2.10;;;;;;;;;;4952835;29;20024;-71
2023/07/22 10:12:46;;;;;;;4.47;2.45;;;;;;;;;;4952873;28;20525;-72
2023/07/22 10:15:13;;;;;;;2.58;2.10;;;;;;;;;;4952869;29;20024;-72
2023/07/22 10:17:40;;;;;;;4.25;2.28;;;;;;;;;;4952609;28;20023;-71
2023/07/22 10:20:07;;;;;;;6.65;2.50;;;;;;;;;;4952960;28;20047;-72
2023/07/22 10:22:37;;;;;;;5.80;2.30;;;;;;;;;;4952689;28;20039;-72
2023/07/22 10:25:07;;;;;;;2.95;2.63;;;;;;;;;;4951424;29;20506;-72
2023/07/22 10:27:34;;;;;;;4.75;2.65;;;;;;;;;;4954586;28;20081;-72
2023/07/22 10:30:00;;;;;;;2.75;2.55;;;;;;;;;;4956973;29;20035;-73
2023/07/22 10:32:32;;;;;;;3.17;2.63;;;;;;;;;;4956550;28;20024;-72
2023/07/22 10:34:58;;;;;;;2.80;2.35;;;;;;;;;;4956569;29;20024;-72
2023/07/22 10:37:30;;;;;;;2.38;2.10;;;;;;;;;;4956123;29;20030;-72
2023/07/22 10:39:59;;;;;;;4.70;2.50;;;;;;;;;;4956216;28;20480;-72
2023/07/22 10:42:26;;;;;;;2.92;2.13;;;;;;;;;;4956217;29;20034;-73
2023/07/22 10:44:52;;;;;;;3.58;2.17;;;;;;;;;;4956291;28;20038;-72
2023/07/22 10:47:32;;;;;;;2.58;2.20;;;;;;;;;;4954741;29;20031;-72
2023/07/22 10:50:05;;;;;;;6.28;2.20;;;;;;;;;;4956268;28;20471;-72
2023/07/22 10:52:40;;;;;;;5.00;2.38;;;;;;;;;;4955904;28;20141;-72
2023/07/22 10:55:14;;;;;;;3.38;2.10;;;;;;;;;;4955166;29;20465;-72
2023/07/22 10:57:50;;;;;;;6.95;2.65;;;;;;;;;;4955714;29;20502;-71
2023/07/22 11:00:20;;;;;;;4.60;2.38;;;;;;;;;;4955879;28;20027;-72
2023/07/22 11:02:48;;;;;;;3.25;2.58;;;;;;;;;;4955758;29;20062;-72
2023/07/22 11:05:16;;;;;;;3.40;2.85;;;;;;;;;;4955744;28;20487;-72
2023/07/22 11:07:43;;;;;;;3.35;2.63;;;;;;;;;;4955550;29;20562;-72
2023/07/22 11:10:15;;;;;;;3.10;2.67;;;;;;;;;;4954459;29;20031;-72
2023/07/22 11:12:44;;;;;;;4.07;2.75;;;;;;;;;;4954217;29;20151;-72
2023/07/22 11:15:10;;;;;;;3.75;2.72;;;;;;;;;;4955692;28;20019;-72
2023/07/22 11:17:36;;;;;;;3.60;2.58;;;;;;;;;;4955344;29;20510;-71
2023/07/22 11:20:03;;;;;;;3.97;2.60;;;;;;;;;;4955488;28;20509;-72
2023/07/22 11:22:29;;;;;;;4.25;2.80;;;;;;;;;;4952783;28;20047;-73
2023/07/22 11:24:57;;;;;;;3.22;2.42;;;;;;;;;;4935189;29;20119;-73
2023/07/22 11:27:23;;;;;;;3.40;2.55;;;;;;;;;;4935143;29;20031;-73
2023/07/22 11:29:49;;;;;;;4.88;2.92;;;;;;;;;;4936101;29;20055;-73
2023/07/22 11:32:21;;;;;;;2.85;2.30;;;;;;;;;;4936119;29;20522;-73
2023/07/22 11:34:47;;;;;;;3.40;2.90;;;;;;;;;;4936307;29;20054;-74
2023/07/22 11:37:14;;;;;;;4.47;2.60;;;;;;;;;;4935880;29;20500;-72
2023/07/22 11:39:42;;;;;;;4.80;2.42;;;;;;;;;;4935507;29;20028;-72
2023/07/22 11:42:08;;;;;;;3.80;2.80;;;;;;;;;;4934773;29;20067;-72
2023/07/22 11:44:34;;;;;;;3.72;2.80;;;;;;;;;;4936217;29;20039;-73
2023/07/22 11:47:03;;;;;;;3.20;2.90;;;;;;;;;;4935744;29;20114;-72
2023/07/22 11:49:43;;;;;;;2.55;2.20;;;;;;;;;;4934538;29;20672;-71
2023/07/22 11:52:15;;;;;;;5.95;3.08;;;;;;;;;;4935813;29;20060;-72
2023/07/22 11:54:42;;;;;;;4.35;2.85;;;;;;;;;;4935770;29;20030;-72
2023/07/22 11:57:11;;;;;;;3.42;3.08;;;;;;;;;;4935470;29;20385;-72
2023/07/22 11:59:38;;;;;;;5.18;2.50;;;;;;;;;;4935671;29;20071;-71
2023/07/22 12:02:05;;;;;;;4.63;2.90;;;;;;;;;;4934563;29;20059;-72
2023/07/22 12:04:31;;;;;;;5.10;3.05;;;;;;;;;;4935775;29;20019;-72
2023/07/22 12:06:57;;;;;;;3.67;2.92;;;;;;;;;;4935530;29;20340;-71
2023/07/22 12:09:24;;;;;;;3.70;2.67;;;;;;;;;;4936039;29;20028;-72
2023/07/22 12:11:56;;;;;;;7.50;6.75;;;;;;;;;;4935769;29;20019;-73
2023/07/22 12:14:22;;;;;;;6.40;5.10;;;;;;;;;;4935527;29;20518;-73
2023/07/22 12:16:53;;;;;;;3.97;3.65;;;;;;;;;;4935349;29;20028;-73
2023/07/22 12:19:19;;;;;;;2.97;2.67;;;;;;;;;;4935607;29;20106;-72
2023/07/22 12:21:45;;;;;;;5.40;4.03;;;;;;;;;;4935216;29;20107;-72
2023/07/22 12:24:14;;;;;;;3.17;2.88;;;;;;;;;;4934099;29;20483;-73
2023/07/22 12:26:40;;;;;;;3.58;2.92;;;;;;;;;;4935043;29;20027;-72
2023/07/22 12:29:06;;;;;;;8.68;7.45;;;;;;;;;;4935530;29;20055;-73
2023/07/22 12:31:32;;;;;;;3.50;3.13;;;;;;;;;;4934988;29;20035;-73
2023/07/22 12:33:58;;;;;;;4.85;3.10;;;;;;;;;;4935111;29;20063;-73
2023/07/22 12:36:25;;;;;;;4.07;3.00;;;;;;;;;;4933575;29;20032;-72
2023/07/22 12:38:51;;;;;;;3.30;2.80;;;;;;;;;;4934805;29;20019;-73
2023/07/22 12:41:17;;;;;;;8.00;5.30;;;;;;;;;;4934851;29;20509;-74
2023/07/22 12:43:43;;;;;;;4.18;3.00;;;;;;;;;;4934786;29;20028;-73
2023/07/22 12:46:09;;;;;;;74.78;59.05;;;;;;;;;;4934995;29;20455;-74
2023/07/22 12:48:35;;;;;;;6.28;5.05;;;;;;;;;;4934672;29;20028;-74
2023/07/22 12:51:01;;;;;;;3.13;2.58;;;;;;;;;;4934093;29;20078;-74
2023/07/22 12:53:27;;;;;;;11.27;8.63;;;;;;;;;;4934620;29;20032;-73
2023/07/22 12:55:53;;;;;;;9.05;7.20;;;;;;;;;;4934600;29;20114;-73
2023/07/22 12:58:19;;;;;;;6.68;5.75;;;;;;;;;;4934528;29;20492;-72
2023/07/22 13:00:45;;;;;;;4.15;3.20;;;;;;;;;;4934617;29;20116;-72
2023/07/22 13:03:11;;;;;;;3.72;3.13;;;;;;;;;;4934309;29;20107;-73
2023/07/22 13:05:37;;;;;;;4.00;2.90;;;;;;;;;;4934307;29;20079;-72
2023/07/22 13:08:03;;;;;;;4.05;2.88;;;;;;;;;;4934106;29;20720;-73
2023/07/22 13:10:31;;;;;;;3.55;2.42;;;;;;;;;;4934540;29;20463;-72
2023/07/22 13:12:57;;;;;;;2.58;2.38;;;;;;;;;;4934383;29;20098;-71
2023/07/22 13:15:23;;;;;;;6.65;3.00;;;;;;;;;;4934311;29;20495;-72
2023/07/22 13:17:49;;;;;;;4.00;2.58;;;;;;;;;;4932773;29;20020;-72
2023/07/22 13:20:15;;;;;;;3.83;2.47;;;;;;;;;;4934160;29;20028;-72
2023/07/22 13:22:41;;;;;;;3.35;2.67;;;;;;;;;;4934196;29;20404;-73
2023/07/22 13:25:09;;;;;;;2.90;2.25;;;;;;;;;;4934293;29;20031;-72
2023/07/22 13:27:35;;;;;;;4.80;2.90;;;;;;;;;;4934105;29;20360;-73
2023/07/22 13:30:01;;;;;;;3.00;2.70;;;;;;;;;;4934150;29;20038;-72
2023/07/22 13:32:27;;;;;;;2.67;2.45;;;;;;;;;;4934089;29;20024;-73
2023/07/22 13:34:53;;;;;;;2.83;2.42;;;;;;;;;;4934259;29;20083;-73
2023/07/22 13:37:19;;;;;;;4.95;3.10;;;;;;;;;;4933762;29;20035;-72
2023/07/22 13:39:45;;;;;;;2.67;2.45;;;;;;;;;;4934255;29;20105;-72
2023/07/22 13:42:11;;;;;;;4.13;2.90;;;;;;;;;;4934034;29;20470;-72
2023/07/22 13:44:37;;;;;;;4.95;2.58;;;;;;;;;;4934102;29;20110;-72
2023/07/22 13:47:04;;;;;;;4.63;2.78;;;;;;;;;;4933870;29;20085;-73
2023/07/22 13:49:30;;;;;;;2.55;2.35;;;;;;;;;;4933981;29;20028;-73
2023/07/22 13:51:55;;;;;;;7.32;3.13;;;;;;;;;;4933943;29;20554;-72
2023/07/22 13:54:21;;;;;;;4.00;2.58;;;;;;;;;;4933878;29;20027;-73
2023/07/22 13:56:47;;;;;;;2.55;2.30;;;;;;;;;;4934021;29;20020;-73
2023/07/22 13:59:16;;;;;;;3.70;2.65;;;;;;;;;;4934091;29;20043;-72
2023/07/22 14:01:43;;;;;;;6.55;3.15;;;;;;;;;;4934664;29;20098;-72
2023/07/22 14:04:09;;;;;;;3.67;2.40;;;;;;;;;;4937996;29;20042;-72
2023/07/22 14:06:35;;;;;;;3.00;2.80;;;;;;;;;;4938078;29;20040;-72
2023/07/22 14:09:01;;;;;;;3.35;2.67;;;;;;;;;;4938130;29;20119;-72
2023/07/22 14:11:27;;;;;;;3.95;2.60;;;;;;;;;;4937922;29;20035;-72
2023/07/22 14:13:53;;;;;;;2.85;2.63;;;;;;;;;;4936725;29;20023;-73
2023/07/22 14:16:19;;;;;;;3.40;2.67;;;;;;;;;;4938164;29;20099;-73
2023/07/22 14:18:45;;;;;;;2.95;2.50;;;;;;;;;;4937618;29;20074;-72
2023/07/22 14:21:11;;;;;;;4.00;2.88;;;;;;;;;;4938160;29;20112;-72
2023/07/22 14:23:38;;;;;;;7.70;3.30;;;;;;;;;;4937546;29;20035;-72
2023/07/22 14:26:04;;;;;;;4.10;3.10;;;;;;;;;;4937761;29;20059;-73
2023/07/22 14:28:30;;;;;;;3.15;2.83;;;;;;;;;;4937661;29;20399;-73
2023/07/22 14:30:56;;;;;;;3.55;3.20;;;;;;;;;;4937897;29;20032;-73
2023/07/22 14:33:22;;;;;;;3.88;3.10;;;;;;;;;;4937306;29;20024;-73
2023/07/22 14:35:48;;;;;;;3.63;2.80;;;;;;;;;;4937496;29;20481;-72
2023/07/22 14:38:15;;;;;;;3.90;3.25;;;;;;;;;;4937424;29;20407;-73